Time;durP1;ratioP1;P1;durP2;ratioP2;P2;SDS_P1;SDS_P2;PMS_P1;PMS_P2;Temp;Humidity;BMP_temperature;BMP_pressure;BME280_temperature;BME280_humidity;BME280_pressure;Samples;Min_cycle;Max_cycle;Signal;HPM_P1;HPM_P2
2023/08/31 00:01:01;;;;;;;;;;;;;;;17.61;71.34;100103.03;4197044;28;20023;-69
2023/08/31 00:03:03;;;;;;;;;;;;;;;17.62;71.21;100107.44;4197750;28;20509;-68
2023/08/31 00:05:06;;;;;;;;;;;;;;;17.62;71.28;100107.44;4197498;28;19925;-69
2023/08/31 00:07:09;;;;;;;;;;;;;;;17.62;71.29;100103.91;4196815;28;20011;-68
2023/08/31 00:09:11;;;;;;;;;;;;;;;17.61;71.17;100108.50;4195518;28;20047;-70
2023/08/31 00:11:14;;;;;;;;;;;;;;;17.62;71.17;100103.91;4197125;28;20494;-69
2023/08/31 00:13:19;;;;;;;;;;;;;;;17.62;71.33;100110.16;4196666;28;20015;-70
2023/08/31 00:15:21;;;;;;;;;;;;;;;17.62;71.09;100115.63;4197574;28;20011;-69
2023/08/31 00:17:23;;;;;;;;;;;;;;;17.63;71.24;100108.25;4197161;28;20008;-70
2023/08/31 00:19:25;;;;;;;;;;;;;;;17.63;71.22;100111.00;4197656;28;20093;-69
2023/08/31 00:21:26;;;;;;;;;;;;;;;17.61;71.36;100108.50;4197349;28;20043;-69
2023/08/31 00:23:30;;;;;;;;;;;;;;;17.59;71.26;100113.38;4197406;28;19978;-68
2023/08/31 00:25:32;;;;;;;;;;;;;;;17.58;71.13;100102.69;4197691;28;20375;-68
2023/08/31 00:27:34;;;;;;;;;;;;;;;17.57;71.30;100096.41;4197707;28;20023;-68
2023/08/31 00:29:35;;;;;;;;;;;;;;;17.57;71.42;100090.09;4197090;28;20019;-69
2023/08/31 00:31:37;;;;;;;;;;;;;;;17.56;71.22;100091.19;4196820;28;20544;-69
2023/08/31 00:33:39;;;;;;;;;;;;;;;17.55;71.39;100081.34;4195957;28;20020;-69
2023/08/31 00:35:43;;;;;;;;;;;;;;;17.55;71.26;100093.06;4197349;28;20055;-69
2023/08/31 00:37:49;;;;;;;;;;;;;;;17.55;71.29;100097.72;4195909;28;20023;-69
2023/08/31 00:39:54;;;;;;;;;;;;;;;17.54;71.54;100085.13;4196333;28;20054;-68
2023/08/31 00:41:56;;;;;;;;;;;;;;;17.55;71.31;100103.19;4196887;28;20618;-68
2023/08/31 00:43:58;;;;;;;;;;;;;;;17.55;71.38;100098.53;4197326;28;20027;-68
2023/08/31 00:46:00;;;;;;;;;;;;;;;17.54;71.27;100096.03;4195376;28;20022;-68
2023/08/31 00:48:02;;;;;;;;;;;;;;;17.52;71.47;100088.09;4194612;28;20361;-69
2023/08/31 00:50:05;;;;;;;;;;;;;;;17.52;71.48;100087.28;4194767;28;20023;-69
2023/08/31 00:52:07;;;;;;;;;;;;;;;17.50;71.55;100076.59;4197076;28;20026;-69
2023/08/31 00:54:08;;;;;;;;;;;;;;;17.51;71.63;100085.59;4196916;28;20022;-69
2023/08/31 00:56:13;;;;;;;;;;;;;;;17.48;71.39;100082.28;4203560;28;20358;-70
2023/08/31 00:58:14;;;;;;;;;;;;;;;17.46;71.53;100086.31;4196835;28;20007;-69
2023/08/31 01:00:17;;;;;;;;;;;;;;;17.43;71.97;100093.09;4195011;28;20501;-69
2023/08/31 01:02:21;;;;;;;;;;;;;;;17.40;71.84;100088.13;4195313;28;20019;-69
2023/08/31 01:04:27;;;;;;;;;;;;;;;17.39;71.84;100086.44;4196510;28;20016;-70
2023/08/31 01:06:31;;;;;;;;;;;;;;;17.36;71.80;100095.09;4195971;28;20485;-69
2023/08/31 01:08:34;;;;;;;;;;;;;;;17.35;72.15;100098.94;4187495;28;20089;-69
2023/08/31 01:10:38;;;;;;;;;;;;;;;17.35;72.01;100101.66;4196291;28;20043;-69
2023/08/31 01:12:46;;;;;;;;;;;;;;;17.33;72.24;100098.31;4187668;28;20482;-68
2023/08/31 01:14:51;;;;;;;;;;;;;;;17.30;72.07;100096.06;4197154;28;20039;-69
2023/08/31 01:16:54;;;;;;;;;;;;;;;17.29;72.23;100100.69;4196812;28;20007;-69
2023/08/31 01:18:56;;;;;;;;;;;;;;;17.29;72.39;100099.88;4195275;28;20023;-68
2023/08/31 01:21:02;;;;;;;;;;;;;;;17.28;72.19;100101.75;4194780;28;20030;-69
2023/08/31 01:23:05;;;;;;;;;;;;;;;17.27;72.19;100113.75;4196398;28;20016;-69
2023/08/31 01:25:10;;;;;;;;;;;;;;;17.27;72.16;100116.47;4196136;28;20434;-68
2023/08/31 01:27:12;;;;;;;;;;;;;;;17.26;72.33;100116.72;4195995;28;19924;-69
2023/08/31 01:29:14;;;;;;;;;;;;;;;17.24;72.38;100121.56;4194872;28;20450;-69
2023/08/31 01:31:17;;;;;;;;;;;;;;;17.21;72.34;100120.16;4178201;28;20011;-69
2023/08/31 01:33:19;;;;;;;;;;;;;;;17.20;72.46;100118.47;4196396;28;20023;-68
2023/08/31 01:35:20;;;;;;;;;;;;;;;17.18;72.55;100117.03;4196272;28;20028;-68
2023/08/31 01:37:26;;;;;;;;;;;;;;;17.16;72.63;100124.66;4196145;28;20051;-69
2023/08/31 01:39:31;;;;;;;;;;;;;;;17.15;72.69;100114.78;4187239;28;20023;-69
2023/08/31 01:41:35;;;;;;;;;;;;;;;17.12;72.53;100127.03;4195520;28;20023;-69
2023/08/31 01:43:41;;;;;;;;;;;;;;;17.11;72.56;100128.09;4186375;28;19928;-68
2023/08/31 01:45:43;;;;;;;;;;;;;;;17.10;72.72;100124.53;4196604;28;20011;-68
2023/08/31 01:47:47;;;;;;;;;;;;;;;17.09;72.75;100122.84;4194649;28;20003;-68
2023/08/31 01:49:49;;;;;;;;;;;;;;;17.10;72.77;100126.44;4194894;28;20039;-68
2023/08/31 01:51:52;;;;;;;;;;;;;;;17.09;72.56;100130.22;4195666;28;20042;-67
2023/08/31 01:53:54;;;;;;;;;;;;;;;17.10;72.86;100127.25;4193834;28;20011;-68
2023/08/31 01:55:56;;;;;;;;;;;;;;;17.10;73.01;100137.34;4193646;28;20030;-68
2023/08/31 01:58:00;;;;;;;;;;;;;;;17.08;73.13;100137.59;4186317;28;20059;-68
2023/08/31 02:00:05;;;;;;;;;;;;;;;17.06;73.15;100136.16;4186505;28;20015;-68
2023/08/31 02:02:16;;;;;;;;;;;;;;;17.05;73.13;100137.22;4195883;28;20027;-68
2023/08/31 02:04:19;;;;;;;;;;;;;;;17.05;73.34;100131.75;4194449;28;20023;-68
2023/08/31 02:06:21;;;;;;;;;;;;;;;17.06;73.43;100138.88;4195644;28;20474;-69
2023/08/31 02:08:23;;;;;;;;;;;;;;;17.05;73.34;100140.78;4194873;28;20430;-69
2023/08/31 02:10:29;;;;;;;;;;;;;;;17.04;73.16;100147.28;4193482;28;20023;-68
2023/08/31 02:12:31;;;;;;;;;;;;;;;17.04;73.36;100147.28;4195816;28;20063;-68
2023/08/31 02:14:35;;;;;;;;;;;;;;;17.03;73.34;100152.97;4194373;28;20027;-68
2023/08/31 02:16:37;;;;;;;;;;;;;;;17.03;73.51;100164.72;4195893;28;20023;-68
2023/08/31 02:18:39;;;;;;;;;;;;;;;17.03;73.73;100162.00;4193961;28;20474;-69
2023/08/31 02:20:41;;;;;;;;;;;;;;;17.02;73.76;100159.50;4193569;28;20658;-70
2023/08/31 02:22:43;;;;;;;;;;;;;;;16.99;73.56;100160.81;4195860;28;20015;-69
2023/08/31 02:24:45;;;;;;;;;;;;;;;16.97;73.83;100162.91;4195660;28;20015;-69
2023/08/31 02:26:48;;;;;;;;;;;;;;;16.97;73.83;100162.91;4195946;28;20024;-70
2023/08/31 02:28:50;;;;;;;;;;;;;;;16.97;73.78;100173.84;4192293;28;19955;-68
2023/08/31 02:31:00;;;;;;;;;;;;;;;16.98;73.77;100170.06;4195984;28;20011;-68
2023/08/31 02:33:06;;;;;;;;;;;;;;;16.98;73.72;100170.06;4193895;28;20043;-69
2023/08/31 02:35:08;;;;;;;;;;;;;;;16.98;73.64;100170.06;4195703;28;20365;-70
2023/08/31 02:37:09;;;;;;;;;;;;;;;16.98;73.48;100180.97;4202858;28;20420;-69
2023/08/31 02:39:12;;;;;;;;;;;;;;;16.97;73.25;100182.00;4194542;28;20032;-69
2023/08/31 02:41:13;;;;;;;;;;;;;;;16.96;73.34;100177.66;4194689;28;20450;-69
2023/08/31 02:43:15;;;;;;;;;;;;;;;16.96;73.13;100190.44;4195695;28;19924;-69
2023/08/31 02:45:17;;;;;;;;;;;;;;;16.93;73.05;100181.66;4194248;28;20026;-69
2023/08/31 02:47:21;;;;;;;;;;;;;;;16.93;73.08;100176.22;4196176;28;20015;-69
2023/08/31 02:49:23;;;;;;;;;;;;;;;16.93;73.10;100184.38;4195332;28;19960;-69
2023/08/31 02:51:26;;;;;;;;;;;;;;;16.94;73.05;100179.75;4194815;28;20031;-69
2023/08/31 02:53:27;;;;;;;;;;;;;;;16.95;73.04;100180.59;4195426;28;20007;-69
2023/08/31 02:55:29;;;;;;;;;;;;;;;16.93;73.07;100184.38;4194300;28;20478;-69
2023/08/31 02:57:31;;;;;;;;;;;;;;;16.93;72.96;100180.84;4194873;28;20387;-69
2023/08/31 02:59:35;;;;;;;;;;;;;;;16.91;72.88;100172.88;4192226;28;20481;-69
2023/08/31 03:01:38;;;;;;;;;;;;;;;16.92;73.14;100179.16;4208833;28;20015;-69
2023/08/31 03:03:42;;;;;;;;;;;;;;;16.91;72.79;100181.06;4195186;28;20023;-70
2023/08/31 03:05:44;;;;;;;;;;;;;;;16.90;73.04;100186.75;4194042;28;20011;-69
2023/08/31 03:07:46;;;;;;;;;;;;;;;16.91;72.96;100188.41;4194378;28;20509;-69
2023/08/31 03:09:50;;;;;;;;;;;;;;;16.90;73.14;100184.84;4193522;28;20023;-68
2023/08/31 03:11:52;;;;;;;;;;;;;;;16.89;73.06;100191.34;4193165;28;20023;-69
2023/08/31 03:13:53;;;;;;;;;;;;;;;16.90;72.90;100192.22;4193791;28;20015;-69
2023/08/31 03:15:56;;;;;;;;;;;;;;;16.87;72.84;100198.94;4195517;28;19932;-69
2023/08/31 03:18:00;;;;;;;;;;;;;;;16.87;73.00;100195.41;4185271;28;20019;-69
2023/08/31 03:20:06;;;;;;;;;;;;;;;16.86;73.07;100201.91;4193512;28;20022;-69
2023/08/31 03:22:08;;;;;;;;;;;;;;;16.84;72.85;100204.84;4194956;28;20446;-69
2023/08/31 03:24:11;;;;;;;;;;;;;;;16.85;73.06;100205.66;4194025;28;20015;-69
2023/08/31 03:26:14;;;;;;;;;;;;;;;16.83;73.00;100202.34;4195273;28;20039;-67
2023/08/31 03:28:16;;;;;;;;;;;;;;;16.81;73.05;100201.75;4195321;28;20023;-67
2023/08/31 03:30:21;;;;;;;;;;;;;;;16.78;72.99;100204.94;4194064;28;20560;-69
2023/08/31 03:32:23;;;;;;;;;;;;;;;16.78;73.04;100207.66;4194600;28;20019;-68
2023/08/31 03:34:29;;;;;;;;;;;;;;;16.75;73.09;100207.06;4199022;28;20623;-68
2023/08/31 03:36:32;;;;;;;;;;;;;;;16.74;72.88;100202.66;4197620;28;20023;-70
2023/08/31 03:38:37;;;;;;;;;;;;;;;16.73;72.81;100205.63;4198056;28;20027;-69
2023/08/31 03:40:39;;;;;;;;;;;;;;;16.71;73.12;100199.59;4196400;28;20354;-68
2023/08/31 03:42:40;;;;;;;;;;;;;;;16.72;73.37;100198.50;4213274;28;20046;-69
2023/08/31 03:44:42;;;;;;;;;;;;;;;16.70;73.21;100196.00;4198277;28;19936;-69
2023/08/31 03:46:45;;;;;;;;;;;;;;;16.70;73.02;100212.38;4195931;28;20063;-70
2023/08/31 03:48:46;;;;;;;;;;;;;;;16.69;73.20;100218.06;4188302;28;20059;-68
2023/08/31 03:50:49;;;;;;;;;;;;;;;16.70;73.36;100219.72;4205533;28;20016;-68
2023/08/31 03:52:53;;;;;;;;;;;;;;;16.69;73.37;100220.78;4197896;28;20019;-69
2023/08/31 03:54:55;;;;;;;;;;;;;;;16.68;73.21;100222.69;4196204;28;20012;-69
2023/08/31 03:56:58;;;;;;;;;;;;;;;16.65;73.46;100225.03;4196443;28;20031;-69
2023/08/31 03:59:00;;;;;;;;;;;;;;;16.63;73.47;100227.16;4196636;28;20019;-70
2023/08/31 04:01:03;;;;;;;;;;;;;;;16.60;73.83;100223.00;4196930;28;20030;-69
2023/08/31 04:03:05;;;;;;;;;;;;;;;16.61;73.79;100221.09;4188931;28;20019;-69
2023/08/31 04:05:09;;;;;;;;;;;;;;;16.60;73.64;100233.06;4204220;28;20009;-67
2023/08/31 04:07:11;;;;;;;;;;;;;;;16.58;73.73;100227.84;4187650;28;20040;-67
2023/08/31 04:09:13;;;;;;;;;;;;;;;16.56;73.67;100224.50;4211506;28;20018;-68
2023/08/31 04:11:16;;;;;;;;;;;;;;;16.55;74.04;100229.16;4193304;28;20460;-68
2023/08/31 04:13:17;;;;;;;;;;;;;;;16.55;74.17;100223.69;4203749;28;20367;-68
2023/08/31 04:15:20;;;;;;;;;;;;;;;16.54;73.92;100222.00;4197506;28;20023;-68
2023/08/31 04:17:22;;;;;;;;;;;;;;;16.55;73.83;100231.03;4187908;28;20034;-69
2023/08/31 04:19:24;;;;;;;;;;;;;;;16.55;73.98;100236.47;4197652;28;20346;-69
2023/08/31 04:21:26;;;;;;;;;;;;;;;16.54;74.02;100235.66;4196845;28;20012;-69
2023/08/31 04:23:29;;;;;;;;;;;;;;;16.54;74.08;100241.09;4197322;28;20023;-68
2023/08/31 04:25:32;;;;;;;;;;;;;;;16.56;74.39;100254.50;4197782;28;20367;-68
2023/08/31 04:27:34;;;;;;;;;;;;;;;16.56;74.41;100249.03;4197686;28;20014;-68
2023/08/31 04:29:36;;;;;;;;;;;;;;;16.54;74.45;100245.72;4185733;28;20043;-69
2023/08/31 04:31:39;;;;;;;;;;;;;;;16.51;74.40;100251.63;4196409;28;19924;-68
2023/08/31 04:33:41;;;;;;;;;;;;;;;16.49;74.40;100249.13;4197110;28;20031;-69
2023/08/31 04:35:44;;;;;;;;;;;;;;;16.50;74.52;100255.41;4197002;28;20035;-69
2023/08/31 04:37:46;;;;;;;;;;;;;;;16.50;74.63;100255.41;4196979;28;19960;-69
2023/08/31 04:39:47;;;;;;;;;;;;;;;16.49;74.49;100257.31;4196603;28;20370;-69
2023/08/31 04:41:51;;;;;;;;;;;;;;;16.48;74.49;100261.09;4196696;28;20027;-69
2023/08/31 04:43:53;;;;;;;;;;;;;;;16.46;74.73;100256.94;4195725;28;20039;-69
2023/08/31 04:45:55;;;;;;;;;;;;;;;16.44;74.79;100259.91;4196404;28;20371;-68
2023/08/31 04:47:57;;;;;;;;;;;;;;;16.43;74.85;100262.84;4196511;28;20012;-68
2023/08/31 04:49:59;;;;;;;;;;;;;;;16.43;74.99;100263.69;4196747;28;20023;-68
2023/08/31 04:52:02;;;;;;;;;;;;;;;16.43;75.06;100265.56;4196504;28;20383;-69
2023/08/31 04:54:04;;;;;;;;;;;;;;;16.41;75.16;100260.34;4194812;28;20031;-68
2023/08/31 04:56:07;;;;;;;;;;;;;;;16.38;75.23;100263.53;4195527;28;20039;-68
2023/08/31 04:58:10;;;;;;;;;;;;;;;16.37;75.24;100261.84;4196238;28;20022;-67
2023/08/31 05:00:13;;;;;;;;;;;;;;;16.36;75.13;100262.91;4183528;28;20015;-67
2023/08/31 05:02:14;;;;;;;;;;;;;;;16.37;75.31;100259.94;4196869;28;20015;-67
2023/08/31 05:04:16;;;;;;;;;;;;;;;16.37;75.66;100256.41;4196838;28;20023;-67
2023/08/31 05:06:20;;;;;;;;;;;;;;;16.34;75.46;100260.41;4196613;28;20003;-68
2023/08/31 05:08:22;;;;;;;;;;;;;;;16.34;75.68;100265.03;4196529;28;20454;-68
2023/08/31 05:10:23;;;;;;;;;;;;;;;16.33;75.63;100260.63;4196255;28;20913;-68
2023/08/31 05:12:25;;;;;;;;;;;;;;;16.32;75.97;100264.44;4195389;28;19925;-67
2023/08/31 05:14:29;;;;;;;;;;;;;;;16.32;75.88;100270.72;4196681;28;20051;-67
2023/08/31 05:16:31;;;;;;;;;;;;;;;16.30;75.91;100270.13;4196941;28;20027;-67
2023/08/31 05:18:33;;;;;;;;;;;;;;;16.30;76.18;100266.53;4196405;28;20014;-66
2023/08/31 05:20:35;;;;;;;;;;;;;;;16.29;76.14;100264.88;4195809;28;20434;-67
2023/08/31 05:22:37;;;;;;;;;;;;;;;16.28;76.22;100276.84;4196137;28;20015;-67
2023/08/31 05:24:40;;;;;;;;;;;;;;;16.26;76.04;100282.50;4196501;28;20481;-67
2023/08/31 05:26:42;;;;;;;;;;;;;;;16.26;76.21;100284.41;4196877;28;20024;-67
2023/08/31 05:28:44;;;;;;;;;;;;;;;16.26;76.61;100282.50;4195792;28;20457;-67
2023/08/31 05:30:51;;;;;;;;;;;;;;;16.26;76.85;100285.25;4195668;28;20818;-67
2023/08/31 05:32:53;;;;;;;;;;;;;;;16.27;76.56;100296.97;4194928;28;19932;-67
2023/08/31 05:34:55;;;;;;;;;;;;;;;16.25;77.01;100293.63;4194537;28;20011;-67
2023/08/31 05:36:57;;;;;;;;;;;;;;;16.24;76.91;100298.25;4192970;28;20008;-68
2023/08/31 05:38:59;;;;;;;;;;;;;;;16.22;76.93;100303.09;4194684;28;20489;-68
2023/08/31 05:41:06;;;;;;;;;;;;;;;16.23;76.77;100299.31;4196289;28;20022;-68
2023/08/31 05:43:09;;;;;;;;;;;;;;;16.20;77.04;100300.59;4197087;28;20035;-67
2023/08/31 05:45:11;;;;;;;;;;;;;;;16.19;76.86;100307.13;4195719;28;20023;-68
2023/08/31 05:47:14;;;;;;;;;;;;;;;16.20;76.76;100307.94;4196567;28;20048;-68
2023/08/31 05:49:15;;;;;;;;;;;;;;;16.19;76.77;100307.13;4195842;28;20430;-67
2023/08/31 05:51:17;;;;;;;;;;;;;;;16.19;76.83;100306.25;4194949;28;19951;-68
2023/08/31 05:53:18;;;;;;;;;;;;;;;16.18;76.73;100307.34;4195536;28;19934;-67
2023/08/31 05:55:20;;;;;;;;;;;;;;;16.18;76.68;100305.44;4193688;28;19932;-67
2023/08/31 05:57:23;;;;;;;;;;;;;;;16.20;76.77;100310.66;4196222;28;20015;-67
2023/08/31 05:59:24;;;;;;;;;;;;;;;16.21;76.63;100318.59;4196212;28;20019;-67
2023/08/31 06:01:26;;;;;;;;;;;;;;;16.23;76.64;100317.56;4195586;28;20019;-67
2023/08/31 06:03:30;;;;;;;;;;;;;;;16.21;76.83;100312.34;4196207;28;20015;-67
2023/08/31 06:05:32;;;;;;;;;;;;;;;16.21;76.78;100320.50;4195557;28;20031;-67
2023/08/31 06:07:34;;;;;;;;;;;;;;;16.22;76.36;100322.16;4195837;28;20027;-68
2023/08/31 06:09:37;;;;;;;;;;;;;;;16.23;76.62;100320.28;4194444;28;20099;-68
2023/08/31 06:11:40;;;;;;;;;;;;;;;16.23;76.63;100325.75;4193260;28;20015;-67
2023/08/31 06:13:42;;;;;;;;;;;;;;;16.21;76.64;100323.25;4194042;28;20023;-67
2023/08/31 06:15:45;;;;;;;;;;;;;;;16.21;76.90;100336.84;4195183;28;20014;-67
2023/08/31 06:17:47;;;;;;;;;;;;;;;16.20;76.68;100327.84;4194390;28;20034;-68
2023/08/31 06:19:51;;;;;;;;;;;;;;;16.20;76.44;100335.19;4194825;28;20383;-68
2023/08/31 06:21:53;;;;;;;;;;;;;;;16.20;76.77;100338.72;4184796;28;20529;-67
2023/08/31 06:23:55;;;;;;;;;;;;;;;16.19;76.77;100339.81;4195346;28;20521;-67
2023/08/31 06:25:57;;;;;;;;;;;;;;;16.20;76.68;100344.19;4195561;28;20022;-68
2023/08/31 06:27:59;;;;;;;;;;;;;;;16.20;76.71;100346.91;4195429;28;20024;-67
2023/08/31 06:30:01;;;;;;;;;;;;;;;16.21;76.56;100348.59;4195001;28;20023;-67
2023/08/31 06:32:03;;;;;;;;;;;;;;;16.24;76.38;100341.00;4194825;28;20019;-67
2023/08/31 06:34:04;;;;;;;;;;;;;;;16.23;76.47;100348.34;4193796;28;20016;-67
2023/08/31 06:36:08;;;;;;;;;;;;;;;16.24;76.37;100352.75;4195434;28;20361;-67
2023/08/31 06:38:10;;;;;;;;;;;;;;;16.24;76.28;100349.19;4195267;28;20342;-67
2023/08/31 06:40:13;;;;;;;;;;;;;;;16.24;76.46;100351.91;4194201;28;20032;-67
2023/08/31 06:42:15;;;;;;;;;;;;;;;16.23;76.74;100353.81;4194950;28;20023;-67
2023/08/31 06:44:17;;;;;;;;;;;;;;;16.20;76.71;100346.91;4210001;28;20055;-67
2023/08/31 06:46:20;;;;;;;;;;;;;;;16.18;76.77;100351.75;4194833;28;20019;-68
2023/08/31 06:48:22;;;;;;;;;;;;;;;16.19;77.01;100353.44;4194974;28;20034;-67
2023/08/31 06:50:24;;;;;;;;;;;;;;;16.18;77.07;100357.19;4194762;28;20198;-67
2023/08/31 06:52:28;;;;;;;;;;;;;;;16.19;76.80;100355.31;4193945;28;20023;-67
2023/08/31 06:54:30;;;;;;;;;;;;;;;16.19;77.06;100347.13;4190786;28;20018;-67
2023/08/31 06:56:31;;;;;;;;;;;;;;;16.19;76.61;100347.13;4196753;28;20019;-67
2023/08/31 06:58:33;;;;;;;;;;;;;;;16.19;76.56;100353.44;4193786;28;20031;-67
2023/08/31 07:00:35;;;;;;;;;;;;;;;16.18;77.11;100359.09;4194297;28;20363;-68
2023/08/31 07:02:38;;;;;;;;;;;;;;;16.20;76.99;100362.44;4193337;28;20454;-68
2023/08/31 07:04:40;;;;;;;;;;;;;;;16.21;76.89;100367.66;4194382;28;20011;-68
2023/08/31 07:06:41;;;;;;;;;;;;;;;16.21;76.89;100356.75;4194995;28;20356;-67
2023/08/31 07:08:45;;;;;;;;;;;;;;;16.23;76.95;100367.44;4196979;28;20141;-68
2023/08/31 07:10:47;;;;;;;;;;;;;;;16.23;77.03;100369.34;4198288;28;20016;-68
2023/08/31 07:12:49;;;;;;;;;;;;;;;16.21;76.92;100369.56;4198201;28;20015;-67
2023/08/31 07:14:51;;;;;;;;;;;;;;;16.19;77.09;100364.34;4197802;28;19925;-67
2023/08/31 07:16:53;;;;;;;;;;;;;;;16.19;76.94;100375.22;4199228;28;20058;-68
2023/08/31 07:18:55;;;;;;;;;;;;;;;16.20;76.78;100370.59;4196898;28;20434;-67
2023/08/31 07:20:57;;;;;;;;;;;;;;;16.19;77.02;100377.94;4197481;28;20026;-67
2023/08/31 07:23:00;;;;;;;;;;;;;;;16.19;77.19;100369.78;4198142;28;20023;-67
2023/08/31 07:25:03;;;;;;;;;;;;;;;16.19;77.19;100382.53;4197874;28;20015;-67
2023/08/31 07:27:05;;;;;;;;;;;;;;;16.20;77.11;100381.50;4196966;28;20024;-67
2023/08/31 07:29:07;;;;;;;;;;;;;;;16.19;77.03;100390.72;4197380;28;20023;-67
2023/08/31 07:31:09;;;;;;;;;;;;;;;16.19;77.40;100388.84;4197198;28;20019;-67
2023/08/31 07:33:11;;;;;;;;;;;;;;;16.18;77.18;100384.44;4198121;28;20652;-68
2023/08/31 07:35:13;;;;;;;;;;;;;;;16.20;77.01;100392.41;4197950;28;20020;-67
2023/08/31 07:37:15;;;;;;;;;;;;;;;16.16;77.15;100383.84;4197964;28;20023;-68
2023/08/31 07:39:18;;;;;;;;;;;;;;;16.20;77.07;100404.13;4197440;28;20023;-67
2023/08/31 07:41:21;;;;;;;;;;;;;;;16.21;76.97;100407.69;4198112;28;20014;-68
2023/08/31 07:43:23;;;;;;;;;;;;;;;16.21;77.35;100404.97;4197744;28;20028;-68
2023/08/31 07:45:24;;;;;;;;;;;;;;;16.20;77.13;100409.56;4197979;28;20018;-67
2023/08/31 07:47:26;;;;;;;;;;;;;;;16.20;77.31;100409.56;4197822;28;19978;-68
2023/08/31 07:49:28;;;;;;;;;;;;;;;16.20;77.18;100404.13;4197592;28;20011;-68
2023/08/31 07:51:30;;;;;;;;;;;;;;;16.19;77.30;100418.81;4197224;28;20063;-67
2023/08/31 07:53:32;;;;;;;;;;;;;;;16.19;77.23;100415.25;4197315;28;20586;-68
2023/08/31 07:55:35;;;;;;;;;;;;;;;16.18;77.39;100422.59;4197394;28;19928;-68
2023/08/31 07:57:38;;;;;;;;;;;;;;;16.22;77.28;100420.25;4195226;28;20020;-68
2023/08/31 07:59:40;;;;;;;;;;;;;;;16.20;77.16;100425.09;4195827;28;19974;-68
2023/08/31 08:01:43;;;;;;;;;;;;;;;16.22;76.89;100428.41;4198166;28;20015;-68
2023/08/31 08:03:45;;;;;;;;;;;;;;;16.24;76.94;100433.66;4196690;28;20462;-68
2023/08/31 08:05:47;;;;;;;;;;;;;;;16.24;76.67;100430.91;4191796;28;20475;-68
2023/08/31 08:07:49;;;;;;;;;;;;;;;16.25;76.68;100432.59;4195140;28;20015;-68
2023/08/31 08:09:51;;;;;;;;;;;;;;;16.26;76.56;100434.28;4196252;28;20385;-67
2023/08/31 08:11:53;;;;;;;;;;;;;;;16.25;76.26;100427.16;4196240;28;20473;-68
2023/08/31 08:13:57;;;;;;;;;;;;;;;16.24;76.24;100437.22;4195997;28;20371;-68
2023/08/31 08:15:59;;;;;;;;;;;;;;;16.25;76.15;100438.88;4196897;28;19978;-68
2023/08/31 08:18:01;;;;;;;;;;;;;;;16.25;75.77;100436.16;4195817;28;20027;-68
2023/08/31 08:20:03;;;;;;;;;;;;;;;16.26;75.56;100437.00;4194222;28;20373;-68
2023/08/31 08:22:05;;;;;;;;;;;;;;;16.28;75.83;100443.88;4185438;28;20023;-68
2023/08/31 08:24:07;;;;;;;;;;;;;;;16.28;75.93;100443.88;4194226;28;20369;-68
2023/08/31 08:26:09;;;;;;;;;;;;;;;16.30;75.93;100443.66;4194519;28;20019;-68
2023/08/31 08:28:11;;;;;;;;;;;;;;;16.32;75.85;100436.13;4195213;28;20023;-68
2023/08/31 08:30:15;;;;;;;;;;;;;;;16.34;75.66;100440.28;4195144;28;20012;-67
2023/08/31 08:32:16;;;;;;;;;;;;;;;16.36;75.68;100435.44;4196354;28;20011;-68
2023/08/31 08:34:18;;;;;;;;;;;;;;;16.38;75.61;100437.97;4197347;28;19925;-68
2023/08/31 08:36:20;;;;;;;;;;;;;;;16.42;75.65;100439.16;4196864;28;19925;-68
2023/08/31 08:38:22;;;;;;;;;;;;;;;16.47;75.25;100442.03;4196731;28;20023;-67
2023/08/31 08:40:24;;;;;;;;;;;;;;;16.52;74.90;100438.66;4196499;28;20021;-67
2023/08/31 08:42:25;;;;;;;;;;;;;;;16.55;74.29;100444.50;4196515;28;20007;-68
2023/08/31 08:44:27;;;;;;;;;;;;;;;16.58;73.97;100437.75;4196929;28;19939;-68
2023/08/31 08:46:30;;;;;;;;;;;;;;;16.61;73.54;100431.84;4194946;28;20019;-68
2023/08/31 08:48:33;;;;;;;;;;;;;;;16.63;73.30;100440.66;4196830;28;20026;-68
2023/08/31 08:50:36;;;;;;;;;;;;;;;16.67;73.35;100435.59;4196433;28;20371;-68
2023/08/31 08:52:38;;;;;;;;;;;;;;;16.69;72.58;100430.72;4196257;28;20014;-69
2023/08/31 08:54:40;;;;;;;;;;;;;;;16.72;72.21;100443.91;4195093;28;20011;-68
2023/08/31 08:56:42;;;;;;;;;;;;;;;16.76;72.09;100439.69;4196439;28;19924;-68
2023/08/31 08:58:44;;;;;;;;;;;;;;;16.79;71.51;100433.78;4196243;28;20418;-69
2023/08/31 09:00:46;;;;;;;;;;;;;;;16.81;70.81;100430.84;4195867;28;20311;-68
2023/08/31 09:02:49;;;;;;;;;;;;;;;16.83;70.57;100431.44;4194428;28;20019;-67
2023/08/31 09:04:54;;;;;;;;;;;;;;;16.84;70.52;100436.66;4196419;28;20020;-68
2023/08/31 09:06:56;;;;;;;;;;;;;;;16.86;70.44;100439.19;4196503;28;20015;-68
2023/08/31 09:08:58;;;;;;;;;;;;;;;16.88;70.72;100434.34;4196524;28;20023;-68
2023/08/31 09:11:01;;;;;;;;;;;;;;;16.91;71.14;100431.16;4196351;28;20369;-68
2023/08/31 09:13:04;;;;;;;;;;;;;;;16.93;71.41;100435.34;4196147;28;20458;-68
2023/08/31 09:15:07;;;;;;;;;;;;;;;16.97;70.98;100432.16;4184615;28;19967;-68
2023/08/31 09:17:09;;;;;;;;;;;;;;;16.99;70.88;100439.06;4195743;28;19974;-68
2023/08/31 09:19:18;;;;;;;;;;;;;;;17.03;70.29;100432.06;4193714;28;20019;-68
2023/08/31 09:21:21;;;;;;;;;;;;;;;17.06;70.01;100439.00;4195679;28;20040;-68
2023/08/31 09:23:23;;;;;;;;;;;;;;;17.08;69.57;100431.41;4193918;28;20493;-68
2023/08/31 09:25:24;;;;;;;;;;;;;;;17.11;70.13;100442.72;4195971;28;20039;-68
2023/08/31 09:27:27;;;;;;;;;;;;;;;17.15;69.96;100442.22;4195678;28;20007;-68
2023/08/31 09:29:29;;;;;;;;;;;;;;;17.17;69.41;100446.41;4194906;28;20039;-67
2023/08/31 09:31:31;;;;;;;;;;;;;;;17.17;68.01;100430.03;4194819;28;20047;-68
2023/08/31 09:33:33;;;;;;;;;;;;;;;17.18;68.12;100439.91;4195860;28;20011;-68
2023/08/31 09:35:35;;;;;;;;;;;;;;;17.20;67.97;100435.03;4195779;28;20023;-68
2023/08/31 09:37:37;;;;;;;;;;;;;;;17.22;68.28;100446.53;4195941;28;20465;-68
2023/08/31 09:39:40;;;;;;;;;;;;;;;17.23;68.24;100437.31;4195541;28;20035;-68
2023/08/31 09:41:54;;;;;;;;;;;;;;;17.24;68.29;100446.31;4195599;28;20016;-68
2023/08/31 09:43:56;;;;;;;;;;;;;;;17.26;68.35;100436.84;4194083;28;20023;-68
2023/08/31 09:45:58;;;;;;;;;;;;;;;17.27;68.01;100438.53;4196106;28;20023;-68
2023/08/31 09:48:00;;;;;;;;;;;;;;;17.27;68.08;100441.25;4187753;28;20007;-68
2023/08/31 09:50:02;;;;;;;;;;;;;;;17.27;67.90;100449.44;4195594;28;20011;-68
2023/08/31 09:52:07;;;;;;;;;;;;;;;17.27;68.08;100440.41;4196222;28;20015;-68
2023/08/31 09:54:09;;;;;;;;;;;;;;;17.25;68.52;100437.91;4194144;28;20019;-68
2023/08/31 09:56:12;;;;;;;;;;;;;;;17.26;68.83;100439.56;4192783;28;20036;-68
2023/08/31 09:58:14;;;;;;;;;;;;;;;17.27;68.66;100430.34;4193515;28;20031;-68
2023/08/31 10:00:18;;;;;;;;;;;;;;;17.27;68.58;100430.34;4193493;28;20490;-68
2023/08/31 10:02:21;;;;;;;;;;;;;;;17.28;67.80;100436.63;4195367;28;20454;-68
2023/08/31 10:04:22;;;;;;;;;;;;;;;17.29;67.91;100422.75;4195521;28;20027;-68
2023/08/31 10:06:25;;;;;;;;;;;;;;;17.32;68.40;100434.25;4194918;28;20019;-68
2023/08/31 10:08:31;;;;;;;;;;;;;;;17.33;68.47;100428.56;4195044;28;20019;-68
2023/08/31 10:10:33;;;;;;;;;;;;;;;17.34;67.92;100437.63;4194771;28;20011;-68
2023/08/31 10:12:34;;;;;;;;;;;;;;;17.35;66.20;100420.16;4195931;28;20031;-68
2023/08/31 10:14:36;;;;;;;;;;;;;;;17.37;67.08;100423.50;4195291;28;20015;-69
2023/08/31 10:16:42;;;;;;;;;;;;;;;17.39;67.16;100424.09;4195275;28;20401;-69
2023/08/31 10:18:44;;;;;;;;;;;;;;;17.42;67.09;100420.91;4194634;28;20018;-68
2023/08/31 10:20:46;;;;;;;;;;;;;;;17.44;66.66;100421.50;4195273;28;20016;-68
2023/08/31 10:22:48;;;;;;;;;;;;;;;17.47;67.11;100430.06;4194974;28;20007;-68
2023/08/31 10:25:00;;;;;;;;;;;;;;;17.50;66.42;100433.41;4194920;28;20027;-68
2023/08/31 10:27:16;;;;;;;;;;;;;;;17.51;65.80;100430.44;4185304;28;20023;-68
2023/08/31 10:29:29;;;;;;;;;;;;;;;17.54;66.47;100437.31;4194518;28;20023;-68